createdAt,value
2022-12-28T00:01:18.529Z,3.20
2022-12-28T00:03:45.395Z,3.14
2022-12-28T00:06:13.039Z,3.20
2022-12-28T00:08:40.576Z,3.26
2022-12-28T00:11:18.641Z,3.45
2022-12-28T00:13:50.711Z,3.33
2022-12-28T00:16:30.901Z,3.29
2022-12-28T00:18:59.633Z,3.31
2022-12-28T00:21:26.564Z,3.30
2022-12-28T00:23:57.537Z,3.31
2022-12-28T00:26:25.567Z,3.24
2022-12-28T00:28:53.510Z,3.25
2022-12-28T00:31:22.014Z,3.21
2022-12-28T00:33:48.421Z,3.29
2022-12-28T00:36:15.473Z,3.26
2022-12-28T00:38:42.562Z,3.35
2022-12-28T00:41:09.650Z,3.41
2022-12-28T00:43:36.424Z,3.53
2022-12-28T00:46:03.211Z,3.63
2022-12-28T00:48:29.634Z,3.65
2022-12-28T00:51:08.904Z,3.80
2022-12-28T00:53:35.417Z,3.86
2022-12-28T00:56:11.891Z,3.85
2022-12-28T00:58:38.651Z,3.90
2022-12-28T01:01:11.293Z,3.86
2022-12-28T01:03:37.814Z,3.79
2022-12-28T01:06:08.965Z,3.71
2022-12-28T01:08:36.787Z,3.75
2022-12-28T01:11:10.781Z,3.72
2022-12-28T01:13:38.059Z,3.73
2022-12-28T01:16:16.036Z,3.70
2022-12-28T01:18:43.493Z,3.80
2022-12-28T01:21:15.759Z,3.89
2022-12-28T01:23:42.827Z,3.96
2022-12-28T01:26:09.895Z,3.95
2022-12-28T01:28:36.912Z,4.00
2022-12-28T01:31:12.509Z,3.96
2022-12-28T01:33:39.719Z,3.97
2022-12-28T01:36:07.781Z,4.00
2022-12-28T01:38:34.955Z,3.98
2022-12-28T01:41:01.446Z,4.15
2022-12-28T01:43:42.050Z,4.30
2022-12-28T01:46:12.279Z,4.45
2022-12-28T01:48:49.535Z,4.50
2022-12-28T01:51:18.282Z,4.53
2022-12-28T01:53:45.586Z,4.47
2022-12-28T01:56:12.088Z,4.55
2022-12-28T01:58:40.009Z,4.55
2022-12-28T02:01:06.688Z,4.61
2022-12-28T02:03:35.187Z,4.65
2022-12-28T02:06:06.298Z,4.78
2022-12-28T02:08:41.781Z,4.73
2022-12-28T02:11:12.590Z,4.85
2022-12-28T02:13:42.089Z,4.76
2022-12-28T02:16:13.064Z,4.92
2022-12-28T02:18:42.146Z,4.64
2022-12-28T02:21:24.601Z,4.58
2022-12-28T02:23:54.035Z,4.66
2022-12-28T02:26:29.475Z,4.69
2022-12-28T02:29:32.803Z,4.65
2022-12-28T02:32:10.432Z,4.78
2022-12-28T02:34:57.183Z,4.90
2022-12-28T02:37:30.524Z,5.04
2022-12-28T02:40:05.543Z,5.10
2022-12-28T02:42:34.917Z,5.22
2022-12-28T02:45:19.962Z,5.31
2022-12-28T02:48:06.322Z,5.32
2022-12-28T02:50:54.232Z,5.43
2022-12-28T02:54:39.642Z,5.56
2022-12-28T02:57:40.082Z,5.81
2022-12-28T03:00:15.405Z,5.96
2022-12-28T03:03:09.963Z,5.88
2022-12-28T03:06:07.235Z,5.92
2022-12-28T03:09:07.174Z,6.10
2022-12-28T03:11:44.118Z,6.17
2022-12-28T03:14:16.064Z,6.19
2022-12-28T03:17:04.147Z,6.17
2022-12-28T03:19:55.571Z,6.20
2022-12-28T03:22:42.405Z,6.14
2022-12-28T03:25:32.597Z,6.31
2022-12-28T03:28:20.963Z,6.36
2022-12-28T03:31:07.343Z,6.37
2022-12-28T03:33:41.622Z,6.37
2022-12-28T03:36:30.519Z,6.36
2022-12-28T03:39:35.913Z,6.53
2022-12-28T03:42:57.603Z,6.55
2022-12-28T03:46:02.823Z,6.56
2022-12-28T03:48:37.323Z,6.75
2022-12-28T03:51:04.386Z,6.88
2022-12-28T03:53:39.277Z,6.83
2022-12-28T03:56:17.594Z,6.76
2022-12-28T03:58:44.002Z,6.71
2022-12-28T04:01:11.046Z,6.76
2022-12-28T04:03:38.080Z,6.77
2022-12-28T04:06:05.207Z,6.86
2022-12-28T04:08:33.645Z,6.86
2022-12-28T04:11:01.412Z,6.89
2022-12-28T04:13:31.601Z,6.87
2022-12-28T04:15:59.420Z,6.83
2022-12-28T04:18:26.033Z,6.91
2022-12-28T04:20:52.946Z,6.98
2022-12-28T04:23:19.661Z,7.20
2022-12-28T04:26:00.537Z,7.04
2022-12-28T04:28:27.143Z,7.04
2022-12-28T04:30:53.706Z,6.97
2022-12-28T04:33:20.198Z,7.04
2022-12-28T04:35:46.796Z,7.06
2022-12-28T04:38:13.447Z,7.08
2022-12-28T04:40:39.821Z,6.94
2022-12-28T04:43:06.248Z,6.89
2022-12-28T04:45:32.607Z,7.01
2022-12-28T04:47:59.292Z,6.95
2022-12-28T04:50:26.729Z,7.05
2022-12-28T04:52:53.215Z,7.12
2022-12-28T04:55:31.932Z,7.26
2022-12-28T04:58:00.605Z,7.36
2022-12-28T05:00:27.067Z,7.31
2022-12-28T05:02:53.559Z,7.29
2022-12-28T05:05:20.015Z,7.39
2022-12-28T05:07:46.429Z,7.47
2022-12-28T05:10:12.827Z,7.55
2022-12-28T05:12:39.188Z,7.57
2022-12-28T05:15:06.448Z,7.65
2022-12-28T05:17:32.889Z,7.65
2022-12-28T05:19:59.405Z,7.65
2022-12-28T05:22:25.893Z,7.74
2022-12-28T05:24:52.327Z,7.73
2022-12-28T05:27:18.745Z,7.69
2022-12-28T05:29:45.204Z,7.90
2022-12-28T05:32:11.636Z,7.87
2022-12-28T05:34:39.827Z,7.87
2022-12-28T05:37:06.238Z,7.95
2022-12-28T05:39:32.620Z,8.12
2022-12-28T05:42:00.721Z,8.11
2022-12-28T05:44:27.388Z,7.99
2022-12-28T05:46:53.806Z,8.12
2022-12-28T05:49:20.356Z,8.16
2022-12-28T05:51:48.932Z,8.15
2022-12-28T05:54:15.303Z,8.06
2022-12-28T05:56:41.661Z,8.19
2022-12-28T05:59:09.144Z,8.13
2022-12-28T06:01:41.255Z,8.05
2022-12-28T06:04:15.034Z,8.02
2022-12-28T06:06:41.639Z,8.21
2022-12-28T06:09:08.050Z,8.23
2022-12-28T06:11:34.572Z,8.24
2022-12-28T06:14:03.565Z,8.26
2022-12-28T06:16:32.513Z,8.26
2022-12-28T06:18:59.371Z,8.22
2022-12-28T06:21:30.418Z,8.29
2022-12-28T06:23:59.034Z,8.19
2022-12-28T06:26:27.425Z,8.40
2022-12-28T06:28:53.917Z,8.20
2022-12-28T06:31:32.022Z,8.32
2022-12-28T06:34:00.247Z,8.14
2022-12-28T06:36:30.493Z,8.26
2022-12-28T06:38:58.740Z,8.26
2022-12-28T06:41:26.315Z,8.36
2022-12-28T06:43:53.319Z,8.27
2022-12-28T06:46:21.612Z,8.26
2022-12-28T06:48:48.240Z,8.19
2022-12-28T06:51:28.705Z,8.35
2022-12-28T06:53:55.380Z,8.34
2022-12-28T06:56:30.780Z,8.38
2022-12-28T06:59:02.840Z,8.33
2022-12-28T07:01:33.135Z,8.42
2022-12-28T07:04:01.127Z,8.24
2022-12-28T07:06:28.973Z,8.36
2022-12-28T07:09:04.674Z,8.48
2022-12-28T07:11:31.441Z,8.46
2022-12-28T07:13:58.090Z,8.40
2022-12-28T07:18:54.917Z,8.38
2022-12-28T07:21:24.083Z,8.32
2022-12-28T07:23:52.272Z,8.35
2022-12-28T07:26:21.487Z,8.33
2022-12-28T07:28:51.999Z,8.43
2022-12-28T07:31:21.103Z,8.42
2022-12-28T07:33:48.089Z,8.48
2022-12-28T07:36:16.832Z,8.64
2022-12-28T07:38:43.955Z,8.53
2022-12-28T07:41:16.325Z,8.49
2022-12-28T07:43:42.889Z,8.48
2022-12-28T07:46:14.643Z,8.62
2022-12-28T07:48:42.251Z,8.58
2022-12-28T07:51:18.127Z,8.55
2022-12-28T07:53:46.707Z,8.63
2022-12-28T07:56:13.752Z,8.68
2022-12-28T08:01:11.733Z,8.68
2022-12-28T08:03:40.693Z,8.80
2022-12-28T08:06:09.714Z,8.76
2022-12-28T08:08:37.883Z,8.69
2022-12-28T08:11:10.524Z,8.63
2022-12-28T08:13:39.006Z,8.72
2022-12-28T08:16:06.368Z,8.70
2022-12-28T08:18:33.835Z,8.55
2022-12-28T08:21:10.583Z,8.73
2022-12-28T08:23:37.093Z,8.66
2022-12-28T08:26:12.730Z,8.78
2022-12-28T08:28:40.121Z,8.67
2022-12-28T08:31:09.156Z,8.73
2022-12-28T08:33:36.250Z,8.71
2022-12-28T08:36:04.075Z,8.75
2022-12-28T08:38:30.954Z,8.77
2022-12-28T08:40:58.928Z,8.78
2022-12-28T08:43:27.172Z,8.75
2022-12-28T08:46:05.812Z,8.78
2022-12-28T08:48:33.638Z,8.92
2022-12-28T08:51:08.491Z,8.96
2022-12-28T08:53:36.042Z,8.76
2022-12-28T08:56:11.588Z,8.79
2022-12-28T08:58:42.068Z,8.92
2022-12-28T09:01:11.470Z,8.99
2022-12-28T09:03:39.268Z,9.11
2022-12-28T09:06:07.558Z,8.91
2022-12-28T09:08:34.227Z,8.97
2022-12-28T09:11:01.745Z,9.03
2022-12-28T09:13:28.805Z,8.97
2022-12-28T09:16:03.503Z,9.00
2022-12-28T09:18:30.665Z,9.15
2022-12-28T09:20:57.134Z,9.26
2022-12-28T09:23:23.738Z,9.18
2022-12-28T09:25:50.178Z,9.10
2022-12-28T09:28:16.638Z,9.11
2022-12-28T09:30:43.031Z,9.07
2022-12-28T09:33:27.874Z,9.06
2022-12-28T09:35:58.620Z,9.19
2022-12-28T09:38:25.294Z,9.14
2022-12-28T09:40:51.722Z,9.16
2022-12-28T09:43:19.227Z,9.22
2022-12-28T09:45:47.302Z,9.25
2022-12-28T09:48:18.835Z,9.32
2022-12-28T09:50:47.239Z,9.25
2022-12-28T09:53:26.753Z,9.19
2022-12-28T09:56:04.923Z,9.29
2022-12-28T09:58:33.874Z,9.32
2022-12-28T10:01:01.606Z,9.51
2022-12-28T10:03:36.223Z,9.46
2022-12-28T10:06:04.278Z,9.32
2022-12-28T10:08:31.332Z,9.61
2022-12-28T10:11:02.232Z,9.40
2022-12-28T10:13:59.391Z,9.33
2022-12-28T10:16:29.293Z,9.46
2022-12-28T10:18:55.863Z,9.57
2022-12-28T10:21:31.880Z,9.46
2022-12-28T10:26:47.142Z,9.58
2022-12-28T10:29:19.014Z,9.67
2022-12-28T10:31:57.529Z,9.62
2022-12-28T10:34:25.114Z,9.66
2022-12-28T10:36:54.328Z,9.73
2022-12-28T10:39:28.113Z,9.36
2022-12-28T10:41:56.115Z,9.70
2022-12-28T10:44:39.330Z,9.61
2022-12-28T10:47:18.102Z,9.60
2022-12-28T10:50:18.580Z,9.46
2022-12-28T10:52:38.225Z,9.44
2022-12-28T10:55:33.168Z,9.43
2022-12-28T10:58:31.764Z,9.54
2022-12-28T11:01:13.652Z,9.43
2022-12-28T11:04:07.901Z,9.57
2022-12-28T11:06:57.392Z,9.65
2022-12-28T11:09:35.259Z,9.62
2022-12-28T11:12:24.982Z,9.73
2022-12-28T11:14:52.414Z,9.66
2022-12-28T11:17:25.057Z,9.67
2022-12-28T11:20:01.206Z,9.92
2022-12-28T11:22:29.739Z,9.92
2022-12-28T11:25:01.525Z,9.99
2022-12-28T11:27:28.159Z,9.88
2022-12-28T11:29:56.022Z,10.07
2022-12-28T11:32:29.438Z,10.06
2022-12-28T11:34:57.633Z,10.21
2022-12-28T11:37:24.059Z,10.23
2022-12-28T11:39:53.046Z,10.27
2022-12-28T11:42:39.970Z,10.28
2022-12-28T11:45:14.966Z,10.24
2022-12-28T11:47:41.416Z,10.36
2022-12-28T11:50:33.620Z,10.45
2022-12-28T11:53:01.915Z,10.32
2022-12-28T11:55:51.034Z,10.46
2022-12-28T11:58:43.341Z,10.34
2022-12-28T12:01:10.948Z,10.40
2022-12-28T12:03:59.263Z,10.29
2022-12-28T12:06:44.233Z,10.42
2022-12-28T12:09:25.848Z,10.40
2022-12-28T12:12:00.709Z,10.26
2022-12-28T12:14:32.237Z,10.36
2022-12-28T12:17:43.901Z,10.48
2022-12-28T12:20:49.336Z,10.38
2022-12-28T12:23:28.462Z,10.37
2022-12-28T12:25:59.520Z,10.31
2022-12-28T12:28:41.914Z,10.39
2022-12-28T12:31:13.385Z,10.45
2022-12-28T12:33:44.560Z,10.53
2022-12-28T12:36:28.387Z,10.65
2022-12-28T12:39:23.590Z,10.52
2022-12-28T12:42:25.227Z,10.69
2022-12-28T12:45:00.178Z,10.70
2022-12-28T12:47:32.300Z,10.56
2022-12-28T12:50:24.007Z,10.54
2022-12-28T12:53:23.789Z,10.54
2022-12-28T12:56:12.536Z,10.48
2022-12-28T12:59:04.478Z,10.65
2022-12-28T13:01:45.442Z,10.74
2022-12-28T13:04:20.479Z,10.65
2022-12-28T13:06:47.199Z,10.71
2022-12-28T13:09:17.224Z,10.86
2022-12-28T13:11:43.945Z,10.73
2022-12-28T13:14:21.229Z,10.71
2022-12-28T13:16:50.217Z,10.72
2022-12-28T13:19:21.097Z,10.83
2022-12-28T13:21:49.172Z,10.65
2022-12-28T13:24:20.062Z,10.69
2022-12-28T13:26:46.535Z,10.61
2022-12-28T13:29:19.063Z,10.51
2022-12-28T13:31:49.673Z,10.67
2022-12-28T13:34:23.507Z,10.56
2022-12-28T13:36:54.240Z,10.42
2022-12-28T13:39:21.456Z,10.50
2022-12-28T13:41:51.230Z,10.48
2022-12-28T13:44:38.903Z,10.45
2022-12-28T13:47:26.095Z,10.46
2022-12-28T13:50:03.661Z,10.65
2022-12-28T13:52:45.337Z,10.52
2022-12-28T13:55:16.518Z,10.63
2022-12-28T13:57:51.267Z,10.59
2022-12-28T14:00:22.592Z,10.46
2022-12-28T14:02:52.142Z,10.37
2022-12-28T14:05:21.529Z,10.53
2022-12-28T14:07:50.436Z,10.32
2022-12-28T14:10:18.423Z,10.40
2022-12-28T14:12:46.278Z,10.29
2022-12-28T14:15:13.960Z,10.55
2022-12-28T14:17:41.491Z,10.36
2022-12-28T14:20:09.693Z,10.41
2022-12-28T14:22:38.384Z,10.54
2022-12-28T14:25:09.705Z,10.59
2022-12-28T14:27:40.783Z,10.38
2022-12-28T14:30:20.840Z,10.37
2022-12-28T14:32:47.664Z,10.48
2022-12-28T14:35:20.561Z,10.41
2022-12-28T14:37:52.650Z,10.53
2022-12-28T14:40:26.401Z,10.45
2022-12-28T14:42:54.401Z,10.49
2022-12-28T14:46:06.692Z,10.57
2022-12-28T14:48:25.936Z,10.46
2022-12-28T14:51:00.244Z,10.39
2022-12-28T14:53:27.831Z,10.39
2022-12-28T14:56:23.562Z,10.35
2022-12-28T14:58:58.102Z,10.28
2022-12-28T15:01:25.413Z,10.35
2022-12-28T15:04:01.147Z,10.41
2022-12-28T15:06:29.799Z,10.22
2022-12-28T15:08:58.836Z,10.27
2022-12-28T15:11:27.628Z,10.39
2022-12-28T15:13:54.127Z,10.33
2022-12-28T15:16:25.477Z,10.49
2022-12-28T15:18:52.846Z,10.28
2022-12-28T15:21:22.316Z,10.22
2022-12-28T15:23:52.954Z,10.02
2022-12-28T15:26:20.480Z,10.12
2022-12-28T15:28:47.123Z,9.99
2022-12-28T15:31:16.916Z,10.11
2022-12-28T15:33:44.331Z,10.07
2022-12-28T15:36:17.396Z,10.20
2022-12-28T15:38:45.860Z,10.06
2022-12-28T15:41:30.632Z,10.11
2022-12-28T15:43:57.088Z,9.91
2022-12-28T15:46:23.592Z,9.97
2022-12-28T15:48:49.997Z,9.97
2022-12-28T15:51:17.105Z,10.01
2022-12-28T15:53:43.804Z,10.04
2022-12-28T15:56:27.768Z,9.90
2022-12-28T15:58:56.402Z,9.92
2022-12-28T16:01:24.592Z,9.93
2022-12-28T16:03:57.150Z,9.82
2022-12-28T16:06:26.234Z,9.79
2022-12-28T16:08:54.216Z,9.75
2022-12-28T16:11:21.323Z,9.82
2022-12-28T16:13:59.307Z,9.80
2022-12-28T16:16:27.930Z,9.80
2022-12-28T16:18:57.369Z,9.85
2022-12-28T16:21:27.116Z,9.82
2022-12-28T16:23:53.564Z,9.93
2022-12-28T16:26:21.396Z,9.93
2022-12-28T16:28:48.141Z,9.81
2022-12-28T16:31:31.152Z,9.83
2022-12-28T16:34:03.427Z,9.86
2022-12-28T16:36:30.610Z,9.77
2022-12-28T16:38:57.690Z,9.93
2022-12-28T16:41:24.723Z,9.77
2022-12-28T16:43:51.837Z,9.88
2022-12-28T16:46:18.887Z,9.98
2022-12-28T16:48:45.408Z,9.85
2022-12-28T16:51:12.486Z,9.76
2022-12-28T16:53:39.181Z,9.83
2022-12-28T16:56:06.358Z,9.92
2022-12-28T16:58:33.287Z,9.84
2022-12-28T17:01:08.356Z,9.78
2022-12-28T17:03:36.210Z,9.87
2022-12-28T17:06:02.744Z,9.90
2022-12-28T17:08:29.211Z,9.91
2022-12-28T17:10:55.711Z,9.99
2022-12-28T17:13:22.359Z,9.95
2022-12-28T17:15:48.845Z,10.02
2022-12-28T17:18:15.314Z,9.85
2022-12-28T17:20:41.858Z,9.80
2022-12-28T17:23:08.497Z,9.79
2022-12-28T17:25:35.854Z,9.89
2022-12-28T17:28:02.820Z,9.99
2022-12-28T17:30:29.417Z,9.88
2022-12-28T17:32:55.994Z,9.72
2022-12-28T17:35:22.556Z,9.70
2022-12-28T17:37:49.027Z,9.78
2022-12-28T17:40:15.433Z,9.86
2022-12-28T17:42:41.859Z,9.85
2022-12-28T17:45:11.765Z,9.66
2022-12-28T17:47:38.441Z,9.62
2022-12-28T17:50:06.326Z,9.75
2022-12-28T17:52:32.769Z,9.57
2022-12-28T17:54:59.138Z,9.72
2022-12-28T17:57:25.625Z,9.63
2022-12-28T17:59:52.035Z,9.66
2022-12-28T18:02:18.669Z,9.70
2022-12-28T18:04:45.242Z,9.64
2022-12-28T18:07:11.684Z,9.76
2022-12-28T18:09:38.087Z,9.60
2022-12-28T18:12:04.814Z,9.70
2022-12-28T18:14:31.255Z,9.67
2022-12-28T18:16:57.783Z,9.76
2022-12-28T18:19:24.370Z,9.72
2022-12-28T18:21:50.829Z,9.61
2022-12-28T18:24:20.637Z,9.64
2022-12-28T18:26:48.196Z,9.68
2022-12-28T18:29:14.862Z,9.61
2022-12-28T18:31:41.444Z,9.72
2022-12-28T18:34:07.937Z,9.72
2022-12-28T18:36:34.317Z,9.71
2022-12-28T18:39:02.678Z,9.72
2022-12-28T18:41:33.946Z,9.67
2022-12-28T18:44:02.820Z,9.71
2022-12-28T18:46:29.640Z,9.70
2022-12-28T18:48:56.575Z,9.64
2022-12-28T18:51:23.219Z,9.65
2022-12-28T18:53:50.731Z,9.54
2022-12-28T18:56:21.388Z,9.61
2022-12-28T18:58:52.854Z,9.65
2022-12-28T19:04:11.346Z,9.77
2022-12-28T19:06:38.464Z,9.69
2022-12-28T19:09:06.313Z,9.75
2022-12-28T19:11:33.399Z,9.66
2022-12-28T19:14:11.469Z,9.80
2022-12-28T19:16:38.059Z,9.76
2022-12-28T19:19:04.516Z,9.71
2022-12-28T19:21:41.512Z,9.80
2022-12-28T19:24:14.478Z,9.87
2022-12-28T19:26:41.463Z,10.02
2022-12-28T19:29:08.382Z,9.88
2022-12-28T19:31:34.848Z,9.90
2022-12-28T19:34:01.383Z,9.94
2022-12-28T19:36:27.847Z,10.00
2022-12-28T19:38:55.216Z,9.83
2022-12-28T19:41:23.522Z,9.75
2022-12-28T19:43:50.321Z,9.80
2022-12-28T19:46:19.880Z,9.80
2022-12-28T19:48:46.587Z,9.91
2022-12-28T19:51:14.375Z,9.77
2022-12-28T19:53:41.161Z,9.91
2022-12-28T19:56:16.855Z,9.83
2022-12-28T19:58:44.663Z,9.74
2022-12-28T20:01:14.474Z,9.70
2022-12-28T20:03:41.370Z,9.69
2022-12-28T20:06:14.470Z,9.64
2022-12-28T20:08:45.501Z,9.58
2022-12-28T20:11:12.026Z,9.54
2022-12-28T20:13:38.488Z,9.58
2022-12-28T20:16:05.430Z,9.57
2022-12-28T20:18:32.051Z,9.40
2022-12-28T20:21:19.069Z,9.23
2022-12-28T20:23:47.970Z,9.10
2022-12-28T20:26:14.671Z,9.07
2022-12-28T20:28:41.070Z,9.08
2022-12-28T20:31:10.737Z,9.05
2022-12-28T20:33:37.637Z,9.12
2022-12-28T20:36:25.388Z,9.34
2022-12-28T20:38:53.989Z,9.36
2022-12-28T20:41:42.180Z,9.46
2022-12-28T20:44:12.124Z,9.43
2022-12-28T20:46:39.049Z,9.34
2022-12-28T20:49:06.057Z,9.38
2022-12-28T20:51:33.598Z,9.52
2022-12-28T20:54:00.125Z,9.64
2022-12-28T20:56:26.503Z,9.76
2022-12-28T20:58:53.379Z,10.01
2022-12-28T21:01:20.764Z,10.14
2022-12-28T21:03:47.413Z,10.00
2022-12-28T21:06:14.151Z,10.21
2022-12-28T21:08:40.666Z,10.13
2022-12-28T21:11:07.190Z,10.17
2022-12-28T21:13:33.706Z,10.34
2022-12-28T21:16:04.207Z,10.26
2022-12-28T21:18:31.103Z,10.33
2022-12-28T21:20:59.868Z,10.41
2022-12-28T21:23:27.075Z,10.51
2022-12-28T21:26:00.102Z,10.60
2022-12-28T21:28:26.978Z,10.59
2022-12-28T21:30:55.179Z,10.72
2022-12-28T21:33:22.161Z,10.81
2022-12-28T21:36:01.779Z,10.76
2022-12-28T21:38:29.113Z,10.77
2022-12-28T21:41:06.939Z,10.82
2022-12-28T21:43:33.686Z,10.80
2022-12-28T21:46:06.080Z,10.88
2022-12-28T21:48:33.942Z,10.87
2022-12-28T21:51:28.629Z,10.99
2022-12-28T21:53:55.667Z,11.01
2022-12-28T21:56:22.237Z,11.03
2022-12-28T21:58:49.905Z,10.94
2022-12-28T22:01:35.667Z,10.89
2022-12-28T22:04:20.899Z,10.86
2022-12-28T22:06:47.390Z,10.96
2022-12-28T22:09:32.472Z,10.88
2022-12-28T22:12:17.311Z,10.99
2022-12-28T22:14:43.650Z,10.92
2022-12-28T22:17:14.192Z,11.06
2022-12-28T22:19:41.131Z,10.98
2022-12-28T22:22:07.562Z,11.01
2022-12-28T22:24:33.983Z,11.01
2022-12-28T22:27:00.382Z,11.07
2022-12-28T22:29:26.890Z,11.05
2022-12-28T22:31:53.302Z,11.01
2022-12-28T22:34:19.801Z,11.08
2022-12-28T22:36:46.172Z,11.19
2022-12-28T22:39:12.575Z,11.11
2022-12-28T22:41:39.046Z,11.01
2022-12-28T22:44:05.502Z,11.09
2022-12-28T22:46:31.997Z,11.18
2022-12-28T22:48:58.385Z,11.13
2022-12-28T22:51:24.734Z,11.04
2022-12-28T22:53:51.085Z,11.09
2022-12-28T22:56:20.731Z,11.16
2022-12-28T22:58:47.913Z,11.20
2022-12-28T23:01:17.270Z,11.06
2022-12-28T23:03:45.875Z,11.18
2022-12-28T23:06:14.843Z,11.25
2022-12-28T23:08:41.395Z,11.21
2022-12-28T23:11:30.463Z,11.22
2022-12-28T23:14:19.900Z,11.15
2022-12-28T23:16:47.084Z,11.17
2022-12-28T23:19:32.354Z,11.15
2022-12-28T23:22:17.409Z,11.17
2022-12-28T23:25:02.731Z,11.16
2022-12-28T23:27:36.972Z,11.18
2022-12-28T23:30:05.300Z,11.25
2022-12-28T23:32:31.688Z,11.19
2022-12-28T23:34:58.102Z,11.09
2022-12-28T23:37:24.527Z,11.08
2022-12-28T23:39:51.239Z,11.19
2022-12-28T23:42:17.625Z,11.24
2022-12-28T23:44:48.406Z,11.23
2022-12-28T23:47:19.090Z,11.41
2022-12-28T23:49:46.026Z,11.35
2022-12-28T23:52:12.492Z,11.28
2022-12-28T23:54:39.091Z,11.33
2022-12-28T23:57:06.313Z,11.18
2022-12-28T23:59:32.724Z,11.24
